Time;durP1;ratioP1;P1;durP2;ratioP2;P2;SDS_P1;SDS_P2;PMS_P1;PMS_P2;Temp;Humidity;BMP_temperature;BMP_pressure;BME280_temperature;BME280_humidity;BME280_pressure;Samples;Min_cycle;Max_cycle;Signal;HPM_P1;HPM_P2
2022/10/29 00:00:53;;;;;;;17.88;11.15;;;12.30;79.40;;;;;;5073236;28;20028;-16
2022/10/29 00:03:20;;;;;;;20.92;13.10;;;12.30;79.50;;;;;;5073500;28;20434;-16
2022/10/29 00:06:01;;;;;;;19.55;11.10;;;12.20;79.80;;;;;;5073404;28;20024;-16
2022/10/29 00:08:28;;;;;;;16.65;10.68;;;12.20;79.70;;;;;;5073674;28;20025;-16
2022/10/29 00:11:05;;;;;;;19.27;11.63;;;12.10;79.80;;;;;;5071124;28;20086;-16
2022/10/29 00:13:31;;;;;;;23.35;13.80;;;12.10;79.90;;;;;;5074258;28;20107;-16
2022/10/29 00:15:57;;;;;;;17.65;9.48;;;12.10;80.00;;;;;;5073791;28;20024;-18
2022/10/29 00:18:23;;;;;;;19.33;11.75;;;12.20;80.10;;;;;;5072348;28;20016;-18
2022/10/29 00:20:49;;;;;;;16.83;10.60;;;12.10;80.30;;;;;;5071890;28;20062;-18
2022/10/29 00:23:15;;;;;;;14.07;8.65;;;12.10;80.40;;;;;;5073274;28;20028;-18
2022/10/29 00:25:40;;;;;;;13.00;8.88;;;12.10;80.30;;;;;;5073238;28;20070;-16
2022/10/29 00:28:06;;;;;;;14.20;9.60;;;12.00;80.30;;;;;;5073497;28;20036;-16
2022/10/29 00:30:34;;;;;;;15.65;9.65;;;12.00;80.00;;;;;;5073106;28;20045;-16
2022/10/29 00:33:00;;;;;;;18.02;10.68;;;12.00;80.40;;;;;;5072939;28;20032;-17
2022/10/29 00:35:26;;;;;;;20.40;11.85;;;12.00;80.50;;;;;;5073430;28;20017;-16
2022/10/29 00:37:52;;;;;;;17.98;11.57;;;12.00;80.40;;;;;;5073596;28;20029;-16
2022/10/29 00:40:19;;;;;;;14.55;8.45;;;11.90;80.60;;;;;;5073094;28;20024;-16
2022/10/29 00:42:45;;;;;;;14.75;9.27;;;11.90;80.60;;;;;;5073059;28;20036;-18
2022/10/29 00:45:19;;;;;;;15.60;9.05;;;11.90;80.40;;;;;;5072678;28;20028;-16
2022/10/29 00:47:50;;;;;;;16.80;9.27;;;11.90;80.30;;;;;;5073038;28;20039;-15
2022/10/29 00:50:17;;;;;;;16.60;10.52;;;11.90;80.30;;;;;;5073327;28;20029;-16
2022/10/29 00:52:46;;;;;;;15.32;9.77;;;11.90;80.40;;;;;;5072981;28;20032;-16
2022/10/29 00:55:14;;;;;;;17.30;9.68;;;11.90;80.40;;;;;;5072763;28;20032;-16
2022/10/29 00:57:47;;;;;;;14.63;9.05;;;11.80;80.30;;;;;;5073467;28;20024;-15
2022/10/29 01:00:17;;;;;;;15.43;9.83;;;11.80;80.30;;;;;;5072906;28;20060;-16
2022/10/29 01:02:47;;;;;;;16.38;9.60;;;11.70;80.40;;;;;;5072482;28;20108;-17
2022/10/29 01:05:17;;;;;;;13.43;8.88;;;11.70;80.40;;;;;;5073084;28;20102;-18
2022/10/29 01:07:43;;;;;;;12.07;8.18;;;11.70;80.40;;;;;;5072910;28;20056;-17
2022/10/29 01:10:11;;;;;;;17.60;8.60;;;11.70;80.50;;;;;;5072766;28;20063;-16
2022/10/29 01:12:55;;;;;;;17.35;9.30;;;11.70;80.30;;;;;;5073097;28;20032;-15
2022/10/29 01:15:49;;;;;;;15.23;9.70;;;11.70;80.30;;;;;;5072662;28;20058;-16
2022/10/29 01:18:17;;;;;;;19.67;11.32;;;11.70;80.50;;;;;;5072759;28;20025;-17
2022/10/29 01:21:02;;;;;;;15.45;9.63;;;11.60;80.70;;;;;;5072728;28;20037;-15
2022/10/29 01:23:53;;;;;;;15.68;8.40;;;11.60;80.50;;;;;;5076446;28;20066;-16
2022/10/29 01:26:57;;;;;;;14.93;8.88;;;11.50;80.50;;;;;;5076570;28;20483;-16
2022/10/29 01:29:44;;;;;;;15.25;8.90;;;11.50;80.60;;;;;;5076484;28;20048;-16
2022/10/29 01:32:14;;;;;;;15.45;8.48;;;11.50;80.60;;;;;;5076634;28;20025;-17
2022/10/29 01:35:09;;;;;;;16.52;9.20;;;11.50;80.70;;;;;;5076452;28;20016;-17
2022/10/29 01:38:12;;;;;;;12.95;8.23;;;11.40;80.80;;;;;;5076586;28;20411;-16
2022/10/29 01:41:13;;;;;;;13.73;8.77;;;11.40;80.80;;;;;;5076452;28;20048;-16
2022/10/29 01:43:52;;;;;;;12.93;7.80;;;11.40;81.10;;;;;;5076226;28;20107;-17
2022/10/29 01:46:41;;;;;;;11.98;7.95;;;11.30;80.80;;;;;;5076348;28;20127;-17
2022/10/29 01:49:19;;;;;;;12.23;7.15;;;11.30;80.70;;;;;;5075865;28;20472;-15
2022/10/29 01:51:47;;;;;;;16.55;9.38;;;11.30;80.60;;;;;;5076113;28;20021;-16
2022/10/29 01:54:13;;;;;;;13.80;8.07;;;11.30;80.60;;;;;;5076047;28;20047;-15
2022/10/29 01:56:39;;;;;;;15.98;9.52;;;11.30;80.60;;;;;;5075927;28;20032;-17
2022/10/29 01:59:09;;;;;;;12.63;7.70;;;11.30;80.80;;;;;;5075766;28;20050;-17
2022/10/29 02:02:14;;;;;;;17.73;9.35;;;11.30;80.70;;;;;;5075870;28;20032;-16
2022/10/29 02:04:46;;;;;;;13.25;7.93;;;11.20;80.70;;;;;;5076128;28;20040;-17
2022/10/29 02:07:15;;;;;;;14.10;8.52;;;11.20;80.70;;;;;;5075602;28;20082;-15
2022/10/29 02:10:09;;;;;;;14.40;8.98;;;11.20;80.70;;;;;;5075683;28;20025;-15
2022/10/29 02:12:52;;;;;;;13.38;7.82;;;11.20;80.70;;;;;;5076796;28;20028;-16
2022/10/29 02:15:33;;;;;;;15.27;8.20;;;11.20;80.90;;;;;;5075569;28;20430;-17
2022/10/29 02:18:01;;;;;;;15.73;8.80;;;11.20;80.80;;;;;;5075651;28;20036;-16
2022/10/29 02:20:27;;;;;;;17.90;10.40;;;11.20;80.80;;;;;;5075661;28;20111;-17
2022/10/29 02:22:53;;;;;;;16.80;10.90;;;11.20;80.70;;;;;;5073995;28;20123;-16
2022/10/29 02:25:19;;;;;;;14.55;9.02;;;11.20;80.80;;;;;;5075384;28;20456;-17
2022/10/29 02:27:44;;;;;;;16.85;9.52;;;11.20;81.00;;;;;;5075420;28;20032;-18
2022/10/29 02:30:11;;;;;;;16.50;10.77;;;11.20;81.00;;;;;;5074926;28;20055;-16
2022/10/29 02:32:36;;;;;;;19.30;11.98;;;11.20;81.10;;;;;;5074935;28;20032;-17
2022/10/29 02:35:03;;;;;;;22.13;11.75;;;11.20;81.10;;;;;;5074438;28;20070;-16
2022/10/29 02:37:29;;;;;;;18.45;10.38;;;11.20;81.10;;;;;;5075552;28;20035;-17
2022/10/29 02:39:55;;;;;;;15.77;9.55;;;11.20;81.10;;;;;;5075474;28;20098;-16
2022/10/29 02:42:21;;;;;;;16.70;10.70;;;11.10;81.20;;;;;;5075153;28;20392;-16
2022/10/29 02:44:47;;;;;;;13.82;8.98;;;11.10;81.40;;;;;;5074997;28;20036;-18
2022/10/29 02:47:13;;;;;;;13.73;8.27;;;11.10;81.40;;;;;;5075242;28;20032;-16
2022/10/29 02:49:39;;;;;;;12.68;7.53;;;11.10;81.30;;;;;;5075311;28;20027;-17
2022/10/29 02:52:05;;;;;;;16.00;8.75;;;11.10;81.20;;;;;;5073948;28;20484;-17
2022/10/29 02:54:31;;;;;;;19.17;9.68;;;11.10;81.20;;;;;;5075014;28;20023;-15
2022/10/29 02:56:57;;;;;;;15.40;8.52;;;11.10;81.10;;;;;;5074733;28;20033;-18
2022/10/29 02:59:23;;;;;;;13.77;8.63;;;11.10;81.20;;;;;;5074780;28;20025;-15
2022/10/29 03:01:49;;;;;;;13.43;8.50;;;11.10;81.30;;;;;;5074651;28;20120;-16
2022/10/29 03:04:15;;;;;;;14.13;8.85;;;11.00;81.30;;;;;;5075210;28;20033;-17
2022/10/29 03:06:41;;;;;;;13.50;7.97;;;11.00;81.50;;;;;;5074924;28;20028;-16
2022/10/29 03:09:07;;;;;;;13.25;8.07;;;11.00;81.40;;;;;;5073138;28;20079;-16
2022/10/29 03:11:33;;;;;;;13.00;7.78;;;10.90;81.40;;;;;;5074469;28;20025;-17
2022/10/29 03:13:59;;;;;;;15.15;9.73;;;10.90;81.50;;;;;;5074468;28;20430;-16
2022/10/29 03:16:25;;;;;;;12.23;7.72;;;10.90;81.50;;;;;;5074350;28;20028;-16
2022/10/29 03:18:51;;;;;;;14.23;7.75;;;10.90;81.30;;;;;;5073043;28;20095;-16
2022/10/29 03:21:17;;;;;;;11.48;7.30;;;10.90;81.40;;;;;;5073219;28;20012;-17
2022/10/29 03:23:43;;;;;;;12.57;8.43;;;10.90;81.40;;;;;;5074594;28;20052;-17
2022/10/29 03:26:12;;;;;;;13.55;7.88;;;10.90;81.40;;;;;;5074520;28;20111;-16
2022/10/29 03:28:38;;;;;;;14.30;9.05;;;10.90;81.40;;;;;;5074172;28;20028;-16
2022/10/29 03:31:04;;;;;;;13.18;7.18;;;10.90;81.50;;;;;;5073698;28;20056;-15
2022/10/29 03:33:30;;;;;;;17.45;9.75;;;10.80;81.40;;;;;;5074072;28;20578;-17
2022/10/29 03:36:01;;;;;;;21.10;11.85;;;10.80;81.30;;;;;;5073984;28;20158;-15
2022/10/29 03:38:28;;;;;;;16.63;10.48;;;10.80;81.20;;;;;;5074349;28;20100;-16
2022/10/29 03:40:54;;;;;;;19.65;10.88;;;10.80;81.40;;;;;;5074005;28;20036;-15
2022/10/29 03:43:21;;;;;;;18.10;11.27;;;10.80;81.40;;;;;;5072709;28;20030;-16
2022/10/29 03:45:54;;;;;;;17.08;10.20;;;10.80;81.70;;;;;;5073782;28;20158;-16
2022/10/29 03:48:22;;;;;;;19.83;10.40;;;10.80;81.60;;;;;;5074221;28;20035;-16
2022/10/29 03:51:00;;;;;;;15.65;8.80;;;10.80;81.90;;;;;;5073894;28;20021;-18
2022/10/29 03:53:28;;;;;;;13.38;8.65;;;10.80;81.60;;;;;;5074210;28;20102;-16
2022/10/29 03:55:55;;;;;;;14.85;9.23;;;10.70;81.80;;;;;;5074074;28;20480;-16
2022/10/29 03:58:22;;;;;;;12.88;7.40;;;10.70;81.80;;;;;;5073991;28;20419;-16
2022/10/29 04:01:03;;;;;;;13.88;8.70;;;10.70;81.70;;;;;;5073735;28;20074;-17
2022/10/29 04:03:32;;;;;;;13.23;8.23;;;10.70;81.50;;;;;;5073557;28;20025;-17
2022/10/29 04:06:00;;;;;;;11.38;7.85;;;10.70;81.60;;;;;;5073369;28;20111;-17
2022/10/29 04:08:26;;;;;;;14.68;9.30;;;10.70;81.40;;;;;;5074045;28;20032;-16
2022/10/29 04:10:52;;;;;;;13.98;7.68;;;10.70;81.30;;;;;;5073223;28;20503;-16
2022/10/29 04:13:19;;;;;;;11.45;7.60;;;10.70;81.40;;;;;;5074092;28;20104;-17
2022/10/29 04:15:45;;;;;;;14.65;9.00;;;10.60;81.40;;;;;;5073610;28;20119;-17
2022/10/29 04:18:12;;;;;;;13.73;7.07;;;10.60;81.50;;;;;;5073355;28;20086;-16
2022/10/29 04:20:40;;;;;;;10.15;6.68;;;10.60;81.30;;;;;;5072095;28;20418;-16
2022/10/29 04:23:06;;;;;;;13.82;8.95;;;10.60;81.30;;;;;;5073927;28;20029;-17
2022/10/29 04:25:32;;;;;;;13.02;8.57;;;10.60;81.40;;;;;;5073172;28;20032;-16
2022/10/29 04:27:58;;;;;;;14.05;8.00;;;10.60;81.50;;;;;;5073590;28;20033;-15
2022/10/29 04:30:24;;;;;;;11.88;7.05;;;10.50;81.50;;;;;;5072848;28;20110;-16
2022/10/29 04:32:54;;;;;;;12.43;7.60;;;10.50;81.50;;;;;;5072949;28;20073;-16
2022/10/29 04:35:20;;;;;;;14.73;9.07;;;10.50;81.60;;;;;;5073416;28;20020;-17
2022/10/29 04:37:46;;;;;;;14.30;8.60;;;10.40;81.50;;;;;;5073412;28;20376;-17
2022/10/29 04:40:12;;;;;;;12.98;7.63;;;10.40;81.50;;;;;;5073098;28;20020;-15
2022/10/29 04:42:39;;;;;;;13.32;7.93;;;10.40;81.40;;;;;;5071787;28;20025;-18
2022/10/29 04:45:07;;;;;;;10.52;6.22;;;10.40;81.40;;;;;;5073031;28;20063;-16
2022/10/29 04:47:33;;;;;;;16.23;8.93;;;10.30;81.30;;;;;;5073205;28;20041;-17
2022/10/29 04:49:58;;;;;;;14.05;8.55;;;10.40;81.30;;;;;;5073474;28;20020;-16
2022/10/29 04:52:25;;;;;;;12.95;7.45;;;10.30;81.40;;;;;;5073066;28;20431;-17
2022/10/29 04:54:51;;;;;;;13.35;8.13;;;10.30;81.50;;;;;;5072833;28;20353;-18
2022/10/29 04:57:17;;;;;;;17.75;10.10;;;10.30;81.40;;;;;;5075112;28;20032;-17
2022/10/29 04:59:43;;;;;;;24.95;14.00;;;10.30;81.50;;;;;;5077085;28;20476;-16
2022/10/29 05:02:10;;;;;;;14.90;9.38;;;10.30;81.70;;;;;;5077135;28;20488;-18
2022/10/29 05:04:36;;;;;;;16.08;8.65;;;10.30;81.50;;;;;;5077725;28;20056;-16
2022/10/29 05:07:02;;;;;;;15.70;8.60;;;10.20;81.60;;;;;;5077542;28;20051;-17
2022/10/29 05:09:27;;;;;;;22.25;11.00;;;10.20;81.60;;;;;;5076889;28;20035;-16
2022/10/29 05:11:53;;;;;;;18.45;10.60;;;10.20;81.80;;;;;;5077057;28;20021;-18
2022/10/29 05:14:19;;;;;;;15.77;10.45;;;10.20;81.80;;;;;;5076833;28;20020;-17
2022/10/29 05:16:45;;;;;;;14.45;9.32;;;10.10;81.80;;;;;;5076654;28;20044;-17
2022/10/29 05:19:11;;;;;;;15.25;8.93;;;10.10;81.80;;;;;;5076864;28;20049;-17
2022/10/29 05:21:37;;;;;;;19.92;9.73;;;10.00;81.80;;;;;;5077283;28;20024;-17
2022/10/29 05:24:03;;;;;;;11.27;6.97;;;10.00;82.10;;;;;;5076550;28;20028;-18
2022/10/29 05:26:31;;;;;;;18.85;10.63;;;10.00;82.10;;;;;;5076798;28;20037;-17
2022/10/29 05:28:57;;;;;;;12.95;8.63;;;10.00;82.10;;;;;;5076095;28;20077;-18
2022/10/29 05:31:23;;;;;;;13.60;9.18;;;10.00;82.00;;;;;;5076344;28;20028;-16
2022/10/29 05:33:49;;;;;;;15.98;9.63;;;10.00;82.00;;;;;;5076767;28;20054;-18
2022/10/29 05:36:15;;;;;;;14.82;9.50;;;10.00;82.00;;;;;;5076360;28;20502;-17
2022/10/29 05:38:41;;;;;;;21.50;12.00;;;10.00;82.00;;;;;;5076324;28;20028;-16
2022/10/29 05:41:08;;;;;;;12.60;8.95;;;10.00;82.20;;;;;;5076074;28;20032;-16
2022/10/29 05:43:34;;;;;;;14.45;8.52;;;10.00;82.30;;;;;;5076437;28;20024;-16
2022/10/29 05:46:03;;;;;;;13.73;8.27;;;10.00;82.10;;;;;;5076336;28;20044;-17
2022/10/29 05:48:29;;;;;;;14.88;9.43;;;9.90;82.00;;;;;;5076167;28;20036;-18
2022/10/29 05:50:57;;;;;;;12.30;7.72;;;9.90;82.30;;;;;;5076132;28;20020;-17
2022/10/29 05:53:24;;;;;;;10.70;7.43;;;9.90;82.00;;;;;;5076083;28;20025;-16
2022/10/29 05:55:50;;;;;;;13.77;8.07;;;9.90;82.10;;;;;;5075965;28;20468;-16
2022/10/29 05:58:16;;;;;;;11.85;7.53;;;9.90;82.20;;;;;;5076512;28;20036;-16
2022/10/29 06:00:44;;;;;;;14.88;8.38;;;9.90;82.00;;;;;;5075770;28;20021;-16
2022/10/29 06:03:16;;;;;;;14.93;8.70;;;9.90;82.10;;;;;;5075016;28;20033;-17
2022/10/29 06:05:43;;;;;;;13.57;8.32;;;9.90;82.10;;;;;;5075822;28;20086;-18
2022/10/29 06:08:09;;;;;;;15.30;8.68;;;10.00;81.90;;;;;;5075874;28;20032;-17
2022/10/29 06:10:35;;;;;;;12.90;8.00;;;10.00;82.10;;;;;;5075746;28;20035;-16
2022/10/29 06:13:00;;;;;;;12.38;7.75;;;10.00;82.10;;;;;;5074405;28;20024;-17
2022/10/29 06:15:26;;;;;;;12.40;7.95;;;10.00;82.30;;;;;;5076312;28;20021;-16
2022/10/29 06:17:52;;;;;;;20.83;10.20;;;10.00;82.10;;;;;;5075534;28;20468;-17
2022/10/29 06:20:20;;;;;;;17.38;11.50;;;10.00;82.10;;;;;;5075529;28;20078;-16
2022/10/29 06:22:47;;;;;;;17.75;9.50;;;10.00;82.20;;;;;;5075829;28;20093;-16
2022/10/29 06:25:13;;;;;;;19.30;11.75;;;10.00;82.10;;;;;;5074223;28;20064;-15
2022/10/29 06:27:39;;;;;;;17.33;11.45;;;10.00;82.20;;;;;;5075453;28;20025;-15
2022/10/29 06:30:06;;;;;;;15.82;10.63;;;10.10;82.70;;;;;;5075333;28;20079;-16
2022/10/29 06:32:32;;;;;;;13.82;8.27;;;10.20;82.70;;;;;;5075240;28;20135;-17
2022/10/29 06:34:58;;;;;;;16.67;9.48;;;10.20;82.80;;;;;;5075430;28;20100;-18
2022/10/29 06:37:24;;;;;;;13.75;8.85;;;10.30;82.80;;;;;;5075458;28;20020;-16
2022/10/29 06:39:50;;;;;;;13.48;8.20;;;10.40;82.70;;;;;;5075175;28;20444;-18
2022/10/29 06:42:15;;;;;;;13.05;9.05;;;10.50;82.70;;;;;;5073957;28;20035;-17
2022/10/29 06:44:41;;;;;;;18.67;11.57;;;10.60;82.90;;;;;;5073812;28;20037;-17
2022/10/29 06:47:07;;;;;;;23.48;12.23;;;10.80;83.00;;;;;;5056903;28;20512;-16
2022/10/29 06:49:33;;;;;;;16.77;9.23;;;10.90;82.90;;;;;;5075335;28;20060;-15
2022/10/29 06:51:59;;;;;;;16.58;9.90;;;11.00;82.80;;;;;;5075291;28;20064;-15
2022/10/29 06:54:25;;;;;;;17.15;10.38;;;11.30;83.10;;;;;;5074908;28;20070;-17
2022/10/29 06:56:51;;;;;;;18.15;9.60;;;11.50;83.20;;;;;;5074971;28;20025;-16
2022/10/29 06:59:17;;;;;;;14.88;8.48;;;11.80;83.10;;;;;;5075709;28;20404;-18
2022/10/29 07:01:43;;;;;;;17.65;9.95;;;12.00;82.70;;;;;;5074687;28;20025;-17
2022/10/29 07:04:08;;;;;;;14.32;9.48;;;12.40;82.30;;;;;;5075272;28;20020;-16
2022/10/29 07:06:34;;;;;;;18.63;10.52;;;12.60;81.80;;;;;;5074671;28;20035;-16
2022/10/29 07:09:00;;;;;;;15.45;9.90;;;12.90;81.50;;;;;;5074788;28;20082;-16
2022/10/29 07:11:26;;;;;;;20.33;11.30;;;13.20;81.10;;;;;;5074596;28;20380;-16
2022/10/29 07:13:53;;;;;;;21.92;11.95;;;13.40;80.50;;;;;;5074475;28;20081;-16
2022/10/29 07:16:18;;;;;;;18.50;11.00;;;13.50;80.10;;;;;;5075192;28;20028;-16
2022/10/29 07:18:44;;;;;;;17.02;10.82;;;13.60;79.90;;;;;;5074615;28;20031;-16
2022/10/29 07:21:12;;;;;;;16.58;10.32;;;13.80;79.80;;;;;;5074004;28;20476;-16
2022/10/29 07:23:38;;;;;;;23.40;12.40;;;13.90;79.70;;;;;;5074322;28;20036;-16
2022/10/29 07:26:04;;;;;;;19.52;10.82;;;14.00;79.60;;;;;;5074217;28;20036;-15
2022/10/29 07:28:30;;;;;;;19.60;11.32;;;14.10;79.50;;;;;;5074191;28;20480;-16
2022/10/29 07:31:00;;;;;;;19.85;11.25;;;14.30;79.80;;;;;;5073802;28;20098;-15
2022/10/29 07:33:29;;;;;;;20.02;13.35;;;14.40;79.30;;;;;;5074430;28;20036;-18
2022/10/29 07:35:59;;;;;;;17.73;10.48;;;14.60;79.60;;;;;;5074397;28;20058;-15
2022/10/29 07:38:25;;;;;;;17.77;11.10;;;14.80;79.30;;;;;;5074383;28;20017;-17
2022/10/29 07:40:52;;;;;;;22.55;10.73;;;15.00;79.10;;;;;;5073882;28;20024;-15
2022/10/29 07:43:20;;;;;;;24.17;13.55;;;15.20;78.70;;;;;;5073929;28;20033;-17
2022/10/29 07:45:50;;;;;;;21.88;12.93;;;15.30;78.50;;;;;;5073736;28;20074;-17
2022/10/29 07:48:19;;;;;;;24.90;13.88;;;15.40;78.20;;;;;;5074235;28;20028;-16
2022/10/29 07:50:45;;;;;;;20.80;13.68;;;15.40;77.90;;;;;;5073941;28;20511;-16
2022/10/29 07:53:11;;;;;;;22.25;13.85;;;15.40;78.00;;;;;;5073563;28;20058;-15
2022/10/29 07:55:38;;;;;;;18.25;12.52;;;15.40;78.20;;;;;;5072492;28;20384;-15
2022/10/29 07:58:07;;;;;;;14.75;10.07;;;15.50;78.10;;;;;;5073992;28;20028;-18
2022/10/29 08:00:35;;;;;;;17.27;10.80;;;15.60;78.00;;;;;;5073834;28;20546;-16
2022/10/29 08:03:02;;;;;;;14.05;8.93;;;15.70;77.70;;;;;;5073395;28;20021;-16
2022/10/29 08:05:29;;;;;;;14.65;9.00;;;15.80;77.70;;;;;;5072205;28;20028;-17
2022/10/29 08:07:56;;;;;;;13.32;8.95;;;15.90;77.60;;;;;;5073859;28;20055;-18
2022/10/29 08:10:23;;;;;;;12.55;8.68;;;16.00;77.60;;;;;;5074087;28;20024;-16
2022/10/29 08:12:57;;;;;;;13.95;9.15;;;16.20;77.30;;;;;;5073262;28;20349;-18
2022/10/29 08:15:23;;;;;;;;;;;16.30;76.80;;;;;;5074475;28;20346;-17
2022/10/29 08:17:50;;;;;;;12.02;8.27;;;16.40;77.30;;;;;;5073634;28;19904;-16
2022/10/29 08:20:16;;;;;;;14.65;8.30;;;16.50;76.50;;;;;;5074284;28;20547;-17
2022/10/29 08:22:42;;;;;;;14.98;9.38;;;16.60;76.20;;;;;;5073625;28;20037;-16
2022/10/29 08:25:09;;;;;;;16.20;11.55;;;16.70;76.00;;;;;;5073072;28;20422;-15
2022/10/29 08:27:35;;;;;;;13.85;8.93;;;16.90;75.60;;;;;;5073838;28;20056;-16
2022/10/29 08:30:02;;;;;;;12.93;8.45;;;17.10;75.40;;;;;;5072992;28;20099;-16
2022/10/29 08:32:28;;;;;;;15.52;9.57;;;17.30;75.20;;;;;;5072188;28;20476;-18
2022/10/29 08:34:55;;;;;;;17.30;8.95;;;17.60;75.10;;;;;;5073244;28;20074;-16
2022/10/29 08:37:21;;;;;;;15.25;9.15;;;17.90;74.20;;;;;;5073136;28;20052;-15
2022/10/29 08:39:46;;;;;;;15.27;8.65;;;18.10;74.40;;;;;;5073738;28;20063;-17
2022/10/29 08:42:28;;;;;;;17.35;9.52;;;18.40;74.00;;;;;;5073071;28;20059;-15
2022/10/29 08:45:18;;;;;;;17.67;9.63;;;18.70;73.50;;;;;;5071631;28;20058;-16
2022/10/29 08:48:07;;;;;;;15.48;8.95;;;19.10;72.60;;;;;;5073142;28;20025;-15
2022/10/29 08:50:40;;;;;;;16.60;11.10;;;19.30;72.40;;;;;;5073140;28;20012;-16
2022/10/29 08:53:20;;;;;;;13.63;8.93;;;19.50;71.80;;;;;;5072969;28;20025;-16
2022/10/29 08:55:46;;;;;;;18.42;11.35;;;19.50;71.50;;;;;;5071806;28;20032;-16
2022/10/29 08:58:31;;;;;;;17.70;10.35;;;19.70;71.70;;;;;;5073140;28;20028;-15
2022/10/29 09:00:58;;;;;;;14.80;9.70;;;19.90;71.10;;;;;;5072717;28;20025;-17
2022/10/29 09:03:28;;;;;;;16.85;10.95;;;20.10;70.90;;;;;;5073181;28;20443;-16
2022/10/29 09:06:11;;;;;;;19.05;10.35;;;20.30;70.10;;;;;;5072900;28;20028;-17
2022/10/29 09:08:52;;;;;;;14.80;8.52;;;20.40;69.60;;;;;;5073060;28;20048;-16
2022/10/29 09:11:23;;;;;;;10.80;8.00;;;20.60;69.60;;;;;;5073371;28;20016;-15
2022/10/29 09:14:29;;;;;;;16.05;9.18;;;20.90;68.90;;;;;;5071549;28;20035;-15
2022/10/29 09:17:00;;;;;;;15.48;7.65;;;21.30;68.00;;;;;;5072087;28;20021;-16
2022/10/29 09:19:46;;;;;;;15.50;8.80;;;21.60;67.60;;;;;;5072688;28;20032;-15
2022/10/29 09:22:11;;;;;;;12.68;8.30;;;21.80;66.80;;;;;;5072742;28;20120;-15
2022/10/29 09:25:04;;;;;;;15.23;8.00;;;22.00;66.80;;;;;;5072743;28;20135;-16
2022/10/29 09:27:57;;;;;;;12.02;6.82;;;22.30;66.60;;;;;;5072598;28;20024;-16
2022/10/29 09:30:27;;;;;;;12.20;8.47;;;22.60;65.70;;;;;;5072732;28;20408;-16
2022/10/29 09:33:03;;;;;;;13.23;8.13;;;22.90;64.40;;;;;;5072425;28;20025;-15
2022/10/29 09:35:43;;;;;;;16.67;9.38;;;22.90;64.20;;;;;;5072850;28;20423;-15
2022/10/29 09:38:25;;;;;;;15.35;9.35;;;22.80;62.40;;;;;;5072924;28;20023;-15
2022/10/29 09:40:51;;;;;;;13.40;7.85;;;22.60;63.60;;;;;;5072783;28;20047;-15
2022/10/29 09:43:38;;;;;;;12.70;8.82;;;22.40;63.80;;;;;;5074274;28;20020;-14
2022/10/29 09:46:31;;;;;;;13.55;7.57;;;22.40;64.30;;;;;;5076074;28;20369;-16
2022/10/29 09:49:25;;;;;;;14.30;8.55;;;22.50;63.60;;;;;;5075980;28;20496;-15
2022/10/29 09:52:15;;;;;;;13.88;7.55;;;22.70;62.90;;;;;;5076504;28;20023;-15
2022/10/29 09:54:42;;;;;;;13.70;9.00;;;22.90;63.20;;;;;;5076756;28;20024;-15
2022/10/29 09:57:20;;;;;;;13.85;8.23;;;23.10;62.50;;;;;;5076136;28;20036;-14
2022/10/29 09:59:55;;;;;;;12.93;7.93;;;23.20;61.80;;;;;;5076250;28;20104;-15
2022/10/29 10:02:33;;;;;;;15.90;8.20;;;23.40;61.50;;;;;;5076164;28;20025;-16
2022/10/29 10:05:27;;;;;;;14.38;9.05;;;23.80;59.50;;;;;;5075924;28;20036;-17
2022/10/29 10:08:07;;;;;;;;;;;24.20;58.80;;;;;;5076299;28;20028;-16
2022/10/29 10:10:38;;;;;;;12.18;7.10;;;24.70;58.40;;;;;;5076108;28;19909;-16
2022/10/29 10:13:05;;;;;;;11.73;7.25;;;25.10;57.20;;;;;;5075812;28;20060;-16
2022/10/29 10:15:36;;;;;;;11.07;7.03;;;25.60;56.20;;;;;;5075615;28;20480;-16
2022/10/29 10:18:04;;;;;;;12.77;7.30;;;26.10;55.50;;;;;;5075591;28;20403;-15
2022/10/29 10:20:31;;;;;;;13.50;6.93;;;26.40;54.40;;;;;;5075816;28;20025;-15
2022/10/29 10:22:58;;;;;;;12.05;7.05;;;26.70;53.80;;;;;;5075434;28;20365;-15
2022/10/29 10:25:44;;;;;;;13.38;8.18;;;26.90;53.40;;;;;;5075760;28;20082;-15
2022/10/29 10:28:16;;;;;;;13.55;7.18;;;27.30;51.90;;;;;;5075494;28;20027;-15
2022/10/29 10:31:03;;;;;;;12.70;8.02;;;27.50;51.60;;;;;;5075415;28;20152;-15
2022/10/29 10:33:30;;;;;;;13.05;6.65;;;27.60;50.00;;;;;;5073817;28;20029;-14
2022/10/29 10:36:05;;;;;;;11.77;6.35;;;27.90;50.70;;;;;;5075320;28;20476;-15
2022/10/29 10:38:48;;;;;;;14.25;5.78;;;28.20;49.50;;;;;;5075313;28;20059;-15
2022/10/29 10:41:20;;;;;;;12.32;8.25;;;28.50;48.30;;;;;;5075313;28;20040;-15
2022/10/29 10:43:47;;;;;;;10.35;6.22;;;28.80;46.10;;;;;;5075537;28;20387;-15
2022/10/29 10:46:26;;;;;;;9.43;5.65;;;28.90;47.40;;;;;;5075359;28;20020;-14
2022/10/29 10:49:02;;;;;;;9.73;5.32;;;29.20;46.80;;;;;;5074178;28;20036;-15
2022/10/29 10:51:31;;;;;;;10.10;5.50;;;29.40;45.10;;;;;;5075104;28;20028;-15
2022/10/29 10:54:00;;;;;;;9.18;5.90;;;29.70;46.50;;;;;;5074623;28;20024;-15
2022/10/29 10:56:26;;;;;;;9.23;5.13;;;29.80;46.00;;;;;;5075076;28;20021;-15
2022/10/29 10:59:02;;;;;;;13.93;6.72;;;30.00;45.90;;;;;;5074979;28;20025;-15
2022/10/29 11:01:40;;;;;;;14.70;7.10;;;30.30;45.10;;;;;;5075259;28;20050;-15
2022/10/29 11:04:30;;;;;;;10.77;5.20;;;30.40;42.80;;;;;;5075141;28;20020;-15
2022/10/29 11:07:04;;;;;;;9.43;5.82;;;30.30;44.10;;;;;;5075217;28;20040;-14
2022/10/29 11:09:42;;;;;;;10.57;6.45;;;30.40;44.30;;;;;;5074901;28;20039;-15
2022/10/29 11:12:22;;;;;;;10.18;5.43;;;30.30;44.20;;;;;;5074614;28;20037;-15
2022/10/29 11:15:11;;;;;;;14.13;7.07;;;30.40;42.60;;;;;;5074434;28;20028;-15
2022/10/29 11:17:49;;;;;;;8.98;5.70;;;30.50;43.80;;;;;;5074591;28;20036;-15
2022/10/29 11:20:30;;;;;;;9.63;5.25;;;30.50;44.40;;;;;;5074516;28;20108;-15
2022/10/29 11:23:14;;;;;;;9.45;5.63;;;30.50;43.50;;;;;;5074347;28;20108;-15
2022/10/29 11:29:05;;;;;;;12.40;7.20;;;30.80;43.40;;;;;;5074118;28;20073;-15
2022/10/29 11:32:08;;;;;;;11.63;6.50;;;30.90;43.10;;;;;;5074149;28;20077;-15
2022/10/29 11:34:36;;;;;;;13.80;7.72;;;30.90;42.40;;;;;;5052090;28;20033;-15
2022/10/29 11:37:38;;;;;;;13.90;6.75;;;30.60;42.70;;;;;;5051815;28;20028;-15
2022/10/29 11:40:20;;;;;;;10.35;7.10;;;30.40;42.70;;;;;;5052473;28;20033;-15
2022/10/29 11:42:47;;;;;;;11.10;5.97;;;30.10;42.60;;;;;;5052050;28;20060;-15
2022/10/29 11:45:40;;;;;;;8.90;5.63;;;29.90;43.70;;;;;;5052221;28;20048;-14
2022/10/29 11:48:26;;;;;;;11.98;6.45;;;29.80;43.40;;;;;;5051974;28;20040;-16
2022/10/29 11:51:20;;;;;;;11.77;6.68;;;29.90;44.00;;;;;;5051667;28;20021;-16
2022/10/29 11:53:54;;;;;;;;;;;30.00;43.50;;;;;;5035557;28;20392;-15
2022/10/29 11:56:29;;;;;;;10.70;5.63;;;30.10;41.60;;;;;;5051736;28;19927;-15
2022/10/29 11:59:24;;;;;;;11.13;6.05;;;30.40;43.90;;;;;;5051686;28;20112;-15
2022/10/29 12:02:15;;;;;;;11.20;7.05;;;30.90;42.20;;;;;;5051361;28;20033;-15
2022/10/29 12:05:35;;;;;;;9.90;6.32;;;31.00;41.00;;;;;;5016585;28;20047;-15
2022/10/29 12:08:32;;;;;;;8.98;5.45;;;30.90;41.20;;;;;;4972827;28;20034;-15
2022/10/29 12:11:09;;;;;;;12.80;5.90;;;31.10;41.70;;;;;;5043518;28;20066;-15
2022/10/29 12:13:57;;;;;;;10.20;5.95;;;31.30;41.20;;;;;;5073863;28;20013;-15
2022/10/29 12:16:32;;;;;;;9.07;6.00;;;31.60;40.40;;;;;;5072268;28;20082;-15
2022/10/29 12:19:10;;;;;;;12.02;6.13;;;32.00;39.60;;;;;;5073511;28;20028;-15
2022/10/29 12:22:00;;;;;;;11.98;6.47;;;32.40;38.40;;;;;;5073747;28;20016;-15
2022/10/29 12:24:52;;;;;;;8.98;5.53;;;32.50;38.40;;;;;;5073284;28;20036;-15
2022/10/29 12:27:28;;;;;;;10.38;5.53;;;32.50;38.40;;;;;;5073620;28;20058;-15
2022/10/29 12:30:06;;;;;;;9.82;5.22;;;32.50;37.90;;;;;;5073252;28;20131;-15
2022/10/29 12:32:47;;;;;;;9.80;5.13;;;32.60;38.20;;;;;;5073293;28;20095;-15
2022/10/29 12:35:21;;;;;;;9.80;5.30;;;32.90;38.50;;;;;;5073845;28;20024;-15
2022/10/29 12:38:16;;;;;;;8.50;5.05;;;33.20;38.30;;;;;;5072047;28;20036;-15
2022/10/29 12:40:45;;;;;;;8.88;5.20;;;33.50;37.70;;;;;;5073422;28;20454;-15
2022/10/29 12:43:27;;;;;;;9.80;5.63;;;33.70;37.80;;;;;;5073188;28;20107;-15
2022/10/29 12:46:04;;;;;;;12.43;6.85;;;33.90;37.30;;;;;;5073623;28;20059;-15
2022/10/29 12:48:45;;;;;;;12.15;7.97;;;33.80;37.00;;;;;;5073437;28;20107;-15
2022/10/29 12:51:35;;;;;;;10.95;6.28;;;33.40;37.30;;;;;;5072878;28;20032;-15
2022/10/29 12:54:10;;;;;;;10.95;6.05;;;33.00;37.10;;;;;;5073330;28;20031;-15
2022/10/29 12:56:36;;;;;;;9.77;5.25;;;33.00;37.30;;;;;;5073155;28;20025;-14
2022/10/29 12:59:23;;;;;;;8.80;5.32;;;33.20;37.70;;;;;;5073113;28;20039;-15
2022/10/29 13:01:53;;;;;;;8.55;4.93;;;33.30;36.50;;;;;;5073067;28;20029;-14
2022/10/29 13:04:30;;;;;;;11.70;5.85;;;33.40;37.50;;;;;;5072820;28;20020;-15